sensor_id;sensor_type;location;lat;lon;timestamp;P1;durP1;ratioP1;P2;durP2;ratioP2
11453;SDS011;5783;55.174;61.310;2022-07-22T00:00:22;1.50;;;1.40;;
11453;SDS011;5783;55.174;61.310;2022-07-22T00:02:51;2.00;;;1.33;;
11453;SDS011;5783;55.174;61.310;2022-07-22T00:05:20;1.60;;;1.40;;
11453;SDS011;5783;55.174;61.310;2022-07-22T00:07:49;3.63;;;1.67;;
11453;SDS011;5783;55.174;61.310;2022-07-22T00:10:18;1.43;;;1.30;;
11453;SDS011;5783;55.174;61.310;2022-07-22T00:12:48;1.33;;;1.23;;
11453;SDS011;5783;55.174;61.310;2022-07-22T00:15:17;2.27;;;1.57;;
11453;SDS011;5783;55.174;61.310;2022-07-22T00:17:46;1.50;;;1.40;;
11453;SDS011;5783;55.174;61.310;2022-07-22T00:20:15;1.67;;;1.30;;
11453;SDS011;5783;55.174;61.310;2022-07-22T00:22:45;1.40;;;1.30;;
11453;SDS011;5783;55.174;61.310;2022-07-22T00:25:14;1.20;;;1.10;;
11453;SDS011;5783;55.174;61.310;2022-07-22T00:27:43;1.40;;;1.30;;
11453;SDS011;5783;55.174;61.310;2022-07-22T00:30:13;1.50;;;1.40;;
11453;SDS011;5783;55.174;61.310;2022-07-22T00:32:42;1.40;;;1.30;;
11453;SDS011;5783;55.174;61.310;2022-07-22T00:35:11;1.70;;;1.60;;
11453;SDS011;5783;55.174;61.310;2022-07-22T00:37:40;1.70;;;1.40;;
11453;SDS011;5783;55.174;61.310;2022-07-22T00:40:09;1.45;;;1.25;;
11453;SDS011;5783;55.174;61.310;2022-07-22T00:42:39;1.50;;;1.40;;
11453;SDS011;5783;55.174;61.310;2022-07-22T00:45:08;1.90;;;1.17;;
11453;SDS011;5783;55.174;61.310;2022-07-22T00:47:38;1.80;;;1.70;;
11453;SDS011;5783;55.174;61.310;2022-07-22T00:50:07;1.80;;;1.50;;
11453;SDS011;5783;55.174;61.310;2022-07-22T00:52:37;2.20;;;1.50;;
11453;SDS011;5783;55.174;61.310;2022-07-22T00:55:06;1.53;;;1.43;;
11453;SDS011;5783;55.174;61.310;2022-07-22T00:57:37;1.60;;;1.40;;
11453;SDS011;5783;55.174;61.310;2022-07-22T01:00:08;1.40;;;1.30;;
11453;SDS011;5783;55.174;61.310;2022-07-22T01:02:39;1.57;;;1.47;;
11453;SDS011;5783;55.174;61.310;2022-07-22T01:07:58;2.30;;;1.60;;
11453;SDS011;5783;55.174;61.310;2022-07-22T01:10:27;1.70;;;1.60;;
11453;SDS011;5783;55.174;61.310;2022-07-22T01:12:56;2.00;;;1.63;;
11453;SDS011;5783;55.174;61.310;2022-07-22T01:15:25;1.93;;;1.60;;
11453;SDS011;5783;55.174;61.310;2022-07-22T01:17:54;2.23;;;1.43;;
11453;SDS011;5783;55.174;61.310;2022-07-22T01:20:23;1.90;;;1.70;;
11453;SDS011;5783;55.174;61.310;2022-07-22T01:22:52;2.63;;;1.60;;
11453;SDS011;5783;55.174;61.310;2022-07-22T01:25:21;3.20;;;1.60;;
11453;SDS011;5783;55.174;61.310;2022-07-22T01:27:51;1.93;;;1.77;;
11453;SDS011;5783;55.174;61.310;2022-07-22T01:30:21;2.17;;;1.53;;
11453;SDS011;5783;55.174;61.310;2022-07-22T01:32:49;1.90;;;1.70;;
11453;SDS011;5783;55.174;61.310;2022-07-22T01:35:18;2.20;;;1.90;;
11453;SDS011;5783;55.174;61.310;2022-07-22T01:37:48;2.33;;;1.70;;
11453;SDS011;5783;55.174;61.310;2022-07-22T01:40:17;1.70;;;1.60;;
11453;SDS011;5783;55.174;61.310;2022-07-22T01:42:46;1.77;;;1.67;;
11453;SDS011;5783;55.174;61.310;2022-07-22T01:45:15;1.67;;;1.57;;
11453;SDS011;5783;55.174;61.310;2022-07-22T01:47:44;1.83;;;1.70;;
11453;SDS011;5783;55.174;61.310;2022-07-22T01:50:13;1.90;;;1.53;;
11453;SDS011;5783;55.174;61.310;2022-07-22T01:52:43;1.80;;;1.50;;
11453;SDS011;5783;55.174;61.310;2022-07-22T01:55:12;1.70;;;1.60;;
11453;SDS011;5783;55.174;61.310;2022-07-22T01:57:41;2.30;;;1.77;;
11453;SDS011;5783;55.174;61.310;2022-07-22T02:00:10;1.90;;;1.70;;
11453;SDS011;5783;55.174;61.310;2022-07-22T02:02:40;2.40;;;1.70;;
11453;SDS011;5783;55.174;61.310;2022-07-22T02:05:09;2.17;;;1.83;;
11453;SDS011;5783;55.174;61.310;2022-07-22T02:07:39;2.03;;;1.80;;
11453;SDS011;5783;55.174;61.310;2022-07-22T02:10:08;1.93;;;1.73;;
11453;SDS011;5783;55.174;61.310;2022-07-22T02:12:38;2.33;;;1.70;;
11453;SDS011;5783;55.174;61.310;2022-07-22T02:15:09;2.03;;;1.83;;
11453;SDS011;5783;55.174;61.310;2022-07-22T02:17:38;1.80;;;1.70;;
11453;SDS011;5783;55.174;61.310;2022-07-22T02:20:08;2.00;;;1.67;;
11453;SDS011;5783;55.174;61.310;2022-07-22T02:22:37;2.50;;;1.70;;
11453;SDS011;5783;55.174;61.310;2022-07-22T02:25:06;1.73;;;1.50;;
11453;SDS011;5783;55.174;61.310;2022-07-22T02:27:38;1.90;;;1.60;;
11453;SDS011;5783;55.174;61.310;2022-07-22T02:30:08;2.60;;;1.80;;
11453;SDS011;5783;55.174;61.310;2022-07-22T02:32:38;1.73;;;1.63;;
11453;SDS011;5783;55.174;61.310;2022-07-22T02:35:07;1.87;;;1.70;;
11453;SDS011;5783;55.174;61.310;2022-07-22T02:37:36;1.80;;;1.70;;
11453;SDS011;5783;55.174;61.310;2022-07-22T02:40:06;1.90;;;1.70;;
11453;SDS011;5783;55.174;61.310;2022-07-22T02:42:35;4.03;;;1.70;;
11453;SDS011;5783;55.174;61.310;2022-07-22T02:45:04;1.80;;;1.70;;
11453;SDS011;5783;55.174;61.310;2022-07-22T02:47:35;2.83;;;1.83;;
11453;SDS011;5783;55.174;61.310;2022-07-22T02:50:06;3.13;;;1.70;;
11453;SDS011;5783;55.174;61.310;2022-07-22T02:52:35;2.17;;;1.87;;
11453;SDS011;5783;55.174;61.310;2022-07-22T02:55:05;2.03;;;1.83;;
11453;SDS011;5783;55.174;61.310;2022-07-22T02:57:34;2.10;;;1.90;;
11453;SDS011;5783;55.174;61.310;2022-07-22T03:00:05;2.00;;;1.80;;
11453;SDS011;5783;55.174;61.310;2022-07-22T03:02:36;1.80;;;1.70;;
11453;SDS011;5783;55.174;61.310;2022-07-22T03:05:06;1.83;;;1.53;;
11453;SDS011;5783;55.174;61.310;2022-07-22T03:07:36;2.10;;;1.80;;
11453;SDS011;5783;55.174;61.310;2022-07-22T03:10:05;3.23;;;1.77;;
11453;SDS011;5783;55.174;61.310;2022-07-22T03:12:35;2.10;;;1.90;;
11453;SDS011;5783;55.174;61.310;2022-07-22T03:15:04;2.17;;;1.97;;
11453;SDS011;5783;55.174;61.310;2022-07-22T03:17:34;3.37;;;1.80;;
11453;SDS011;5783;55.174;61.310;2022-07-22T03:20:04;2.73;;;1.93;;
11453;SDS011;5783;55.174;61.310;2022-07-22T03:22:35;2.17;;;1.97;;
11453;SDS011;5783;55.174;61.310;2022-07-22T03:25:04;1.90;;;1.80;;
11453;SDS011;5783;55.174;61.310;2022-07-22T03:27:33;2.50;;;1.97;;
11453;SDS011;5783;55.174;61.310;2022-07-22T03:30:04;3.10;;;2.20;;
11453;SDS011;5783;55.174;61.310;2022-07-22T03:32:34;2.27;;;1.70;;
11453;SDS011;5783;55.174;61.310;2022-07-22T03:35:03;2.50;;;1.80;;
11453;SDS011;5783;55.174;61.310;2022-07-22T03:37:33;2.23;;;2.00;;
11453;SDS011;5783;55.174;61.310;2022-07-22T03:40:02;2.53;;;2.20;;
11453;SDS011;5783;55.174;61.310;2022-07-22T03:42:32;2.00;;;1.80;;
11453;SDS011;5783;55.174;61.310;2022-07-22T03:45:02;2.57;;;1.90;;
11453;SDS011;5783;55.174;61.310;2022-07-22T03:47:31;2.37;;;2.10;;
11453;SDS011;5783;55.174;61.310;2022-07-22T03:50:01;2.33;;;2.00;;
11453;SDS011;5783;55.174;61.310;2022-07-22T03:52:31;2.50;;;2.10;;
11453;SDS011;5783;55.174;61.310;2022-07-22T03:55:00;2.10;;;1.70;;
11453;SDS011;5783;55.174;61.310;2022-07-22T03:57:30;2.30;;;2.10;;
11453;SDS011;5783;55.174;61.310;2022-07-22T03:59:59;2.20;;;1.90;;
11453;SDS011;5783;55.174;61.310;2022-07-22T04:02:30;2.37;;;1.80;;
11453;SDS011;5783;55.174;61.310;2022-07-22T04:04:59;1.90;;;1.80;;
11453;SDS011;5783;55.174;61.310;2022-07-22T04:07:30;2.67;;;2.00;;
11453;SDS011;5783;55.174;61.310;2022-07-22T04:09:59;1.80;;;1.70;;
11453;SDS011;5783;55.174;61.310;2022-07-22T04:12:49;2.93;;;2.00;;
11453;SDS011;5783;55.174;61.310;2022-07-22T04:15:18;2.20;;;1.80;;
11453;SDS011;5783;55.174;61.310;2022-07-22T04:17:47;2.07;;;1.90;;
11453;SDS011;5783;55.174;61.310;2022-07-22T04:20:16;2.30;;;2.00;;
11453;SDS011;5783;55.174;61.310;2022-07-22T04:22:45;2.00;;;1.80;;
11453;SDS011;5783;55.174;61.310;2022-07-22T04:25:15;1.77;;;1.67;;
11453;SDS011;5783;55.174;61.310;2022-07-22T04:27:44;2.37;;;2.03;;
11453;SDS011;5783;55.174;61.310;2022-07-22T04:30:13;2.50;;;1.90;;
11453;SDS011;5783;55.174;61.310;2022-07-22T04:32:42;1.83;;;1.70;;
11453;SDS011;5783;55.174;61.310;2022-07-22T04:35:12;2.00;;;1.80;;
11453;SDS011;5783;55.174;61.310;2022-07-22T04:37:41;1.83;;;1.67;;
11453;SDS011;5783;55.174;61.310;2022-07-22T04:40:12;2.63;;;1.90;;
11453;SDS011;5783;55.174;61.310;2022-07-22T04:42:43;3.97;;;2.00;;
11453;SDS011;5783;55.174;61.310;2022-07-22T04:45:12;2.07;;;1.67;;
11453;SDS011;5783;55.174;61.310;2022-07-22T04:47:41;2.20;;;2.00;;
11453;SDS011;5783;55.174;61.310;2022-07-22T04:50:12;2.17;;;1.90;;
11453;SDS011;5783;55.174;61.310;2022-07-22T04:52:41;1.80;;;1.70;;
11453;SDS011;5783;55.174;61.310;2022-07-22T04:55:10;2.40;;;2.00;;
11453;SDS011;5783;55.174;61.310;2022-07-22T04:57:39;2.20;;;1.77;;
11453;SDS011;5783;55.174;61.310;2022-07-22T05:00:09;2.93;;;1.90;;
11453;SDS011;5783;55.174;61.310;2022-07-22T05:02:38;3.43;;;2.47;;
11453;SDS011;5783;55.174;61.310;2022-07-22T05:05:07;3.20;;;2.60;;
11453;SDS011;5783;55.174;61.310;2022-07-22T05:07:37;2.97;;;2.50;;
11453;SDS011;5783;55.174;61.310;2022-07-22T05:10:06;3.70;;;2.50;;
11453;SDS011;5783;55.174;61.310;2022-07-22T05:12:35;4.50;;;2.30;;
11453;SDS011;5783;55.174;61.310;2022-07-22T05:15:05;2.83;;;2.03;;
11453;SDS011;5783;55.174;61.310;2022-07-22T05:17:35;2.37;;;2.00;;
11453;SDS011;5783;55.174;61.310;2022-07-22T05:20:04;2.47;;;2.10;;
11453;SDS011;5783;55.174;61.310;2022-07-22T05:22:33;2.67;;;1.97;;
11453;SDS011;5783;55.174;61.310;2022-07-22T05:25:02;2.70;;;1.90;;
11453;SDS011;5783;55.174;61.310;2022-07-22T05:27:32;2.07;;;1.87;;
11453;SDS011;5783;55.174;61.310;2022-07-22T05:30:01;2.07;;;1.87;;
11453;SDS011;5783;55.174;61.310;2022-07-22T05:32:31;1.83;;;1.60;;
11453;SDS011;5783;55.174;61.310;2022-07-22T05:35:00;3.03;;;1.70;;
11453;SDS011;5783;55.174;61.310;2022-07-22T05:37:31;3.27;;;1.80;;
11453;SDS011;5783;55.174;61.310;2022-07-22T05:40:00;2.13;;;1.57;;
11453;SDS011;5783;55.174;61.310;2022-07-22T05:42:30;1.90;;;1.50;;
11453;SDS011;5783;55.174;61.310;2022-07-22T05:44:59;1.50;;;1.40;;
11453;SDS011;5783;55.174;61.310;2022-07-22T05:47:30;1.97;;;1.57;;
11453;SDS011;5783;55.174;61.310;2022-07-22T05:49:59;2.80;;;1.50;;
11453;SDS011;5783;55.174;61.310;2022-07-22T05:52:30;2.07;;;1.60;;
11453;SDS011;5783;55.174;61.310;2022-07-22T05:54:59;5.03;;;1.60;;
11453;SDS011;5783;55.174;61.310;2022-07-22T05:57:30;3.13;;;1.50;;
11453;SDS011;5783;55.174;61.310;2022-07-22T05:59:59;2.80;;;1.60;;
11453;SDS011;5783;55.174;61.310;2022-07-22T06:02:30;1.40;;;1.30;;
11453;SDS011;5783;55.174;61.310;2022-07-22T06:04:59;2.05;;;1.25;;
11453;SDS011;5783;55.174;61.310;2022-07-22T06:07:30;2.60;;;1.40;;
11453;SDS011;5783;55.174;61.310;2022-07-22T06:09:59;1.70;;;1.60;;
11453;SDS011;5783;55.174;61.310;2022-07-22T06:12:29;2.27;;;1.53;;
11453;SDS011;5783;55.174;61.310;2022-07-22T06:14:59;1.40;;;1.30;;
11453;SDS011;5783;55.174;61.310;2022-07-22T06:17:30;2.77;;;1.30;;
11453;SDS011;5783;55.174;61.310;2022-07-22T06:20:00;1.93;;;1.67;;
11453;SDS011;5783;55.174;61.310;2022-07-22T06:22:30;1.90;;;1.40;;
11453;SDS011;5783;55.174;61.310;2022-07-22T06:24:59;1.40;;;1.30;;
11453;SDS011;5783;55.174;61.310;2022-07-22T06:27:28;1.67;;;1.30;;
11453;SDS011;5783;55.174;61.310;2022-07-22T06:29:58;1.80;;;1.30;;
11453;SDS011;5783;55.174;61.310;2022-07-22T06:32:27;2.27;;;1.13;;
11453;SDS011;5783;55.174;61.310;2022-07-22T06:34:56;1.63;;;1.50;;
11453;SDS011;5783;55.174;61.310;2022-07-22T06:37:25;1.77;;;1.60;;
11453;SDS011;5783;55.174;61.310;2022-07-22T06:39:54;3.60;;;1.20;;
11453;SDS011;5783;55.174;61.310;2022-07-22T06:42:23;2.97;;;1.70;;
11453;SDS011;5783;55.174;61.310;2022-07-22T06:44:52;1.80;;;1.60;;
11453;SDS011;5783;55.174;61.310;2022-07-22T06:47:22;3.10;;;1.70;;
11453;SDS011;5783;55.174;61.310;2022-07-22T06:49:51;1.80;;;1.70;;
11453;SDS011;5783;55.174;61.310;2022-07-22T06:52:20;2.70;;;1.50;;
11453;SDS011;5783;55.174;61.310;2022-07-22T06:54:49;3.03;;;1.70;;
11453;SDS011;5783;55.174;61.310;2022-07-22T06:57:18;2.43;;;1.70;;
11453;SDS011;5783;55.174;61.310;2022-07-22T06:59:47;1.65;;;1.55;;
11453;SDS011;5783;55.174;61.310;2022-07-22T07:02:16;2.90;;;1.77;;
11453;SDS011;5783;55.174;61.310;2022-07-22T07:04:46;2.05;;;1.70;;
11453;SDS011;5783;55.174;61.310;2022-07-22T07:07:15;3.30;;;1.80;;
11453;SDS011;5783;55.174;61.310;2022-07-22T07:09:44;1.93;;;1.73;;
11453;SDS011;5783;55.174;61.310;2022-07-22T07:12:13;2.27;;;1.60;;
11453;SDS011;5783;55.174;61.310;2022-07-22T07:14:42;1.80;;;1.70;;
11453;SDS011;5783;55.174;61.310;2022-07-22T07:17:12;1.80;;;1.70;;
11453;SDS011;5783;55.174;61.310;2022-07-22T07:19:41;1.97;;;1.57;;
11453;SDS011;5783;55.174;61.310;2022-07-22T07:22:10;3.10;;;1.67;;
11453;SDS011;5783;55.174;61.310;2022-07-22T07:24:39;1.60;;;1.43;;
11453;SDS011;5783;55.174;61.310;2022-07-22T07:27:08;1.60;;;1.50;;
11453;SDS011;5783;55.174;61.310;2022-07-22T07:29:38;1.87;;;1.70;;
11453;SDS011;5783;55.174;61.310;2022-07-22T07:32:07;2.35;;;1.85;;
11453;SDS011;5783;55.174;61.310;2022-07-22T07:34:36;1.70;;;1.60;;
11453;SDS011;5783;55.174;61.310;2022-07-22T07:37:05;1.60;;;1.50;;
11453;SDS011;5783;55.174;61.310;2022-07-22T07:39:34;2.67;;;1.80;;
11453;SDS011;5783;55.174;61.310;2022-07-22T07:42:03;2.90;;;1.80;;
11453;SDS011;5783;55.174;61.310;2022-07-22T07:44:33;4.37;;;1.80;;
11453;SDS011;5783;55.174;61.310;2022-07-22T07:47:02;1.80;;;1.70;;
11453;SDS011;5783;55.174;61.310;2022-07-22T07:49:31;1.80;;;1.70;;
11453;SDS011;5783;55.174;61.310;2022-07-22T07:52:00;3.30;;;1.93;;
11453;SDS011;5783;55.174;61.310;2022-07-22T07:54:29;2.45;;;1.75;;
11453;SDS011;5783;55.174;61.310;2022-07-22T07:56:58;2.20;;;2.00;;
11453;SDS011;5783;55.174;61.310;2022-07-22T07:59:28;2.27;;;1.90;;
11453;SDS011;5783;55.174;61.310;2022-07-22T08:01:57;2.13;;;1.93;;
11453;SDS011;5783;55.174;61.310;2022-07-22T08:04:27;2.07;;;1.90;;
11453;SDS011;5783;55.174;61.310;2022-07-22T08:06:56;2.63;;;2.03;;
11453;SDS011;5783;55.174;61.310;2022-07-22T08:09:26;2.17;;;1.97;;
11453;SDS011;5783;55.174;61.310;2022-07-22T08:11:55;3.07;;;2.00;;
11453;SDS011;5783;55.174;61.310;2022-07-22T08:14:24;2.20;;;2.00;;
11453;SDS011;5783;55.174;61.310;2022-07-22T08:16:53;2.60;;;2.40;;
11453;SDS011;5783;55.174;61.310;2022-07-22T08:19:23;4.27;;;2.10;;
11453;SDS011;5783;55.174;61.310;2022-07-22T08:21:52;3.33;;;2.23;;
11453;SDS011;5783;55.174;61.310;2022-07-22T08:24:23;4.37;;;2.00;;
11453;SDS011;5783;55.174;61.310;2022-07-22T08:26:52;2.10;;;1.90;;
11453;SDS011;5783;55.174;61.310;2022-07-22T08:29:21;2.30;;;1.90;;
11453;SDS011;5783;55.174;61.310;2022-07-22T08:31:50;2.40;;;2.20;;
11453;SDS011;5783;55.174;61.310;2022-07-22T08:34:19;3.47;;;2.10;;
11453;SDS011;5783;55.174;61.310;2022-07-22T08:36:49;3.20;;;2.10;;
11453;SDS011;5783;55.174;61.310;2022-07-22T08:39:18;3.73;;;2.10;;
11453;SDS011;5783;55.174;61.310;2022-07-22T08:41:47;2.40;;;2.07;;
11453;SDS011;5783;55.174;61.310;2022-07-22T08:44:16;2.30;;;2.10;;
11453;SDS011;5783;55.174;61.310;2022-07-22T08:46:46;2.60;;;1.90;;
11453;SDS011;5783;55.174;61.310;2022-07-22T08:49:15;2.20;;;2.00;;
11453;SDS011;5783;55.174;61.310;2022-07-22T08:51:45;1.90;;;1.80;;
11453;SDS011;5783;55.174;61.310;2022-07-22T08:54:14;2.20;;;2.00;;
11453;SDS011;5783;55.174;61.310;2022-07-22T08:59:32;2.43;;;1.83;;
11453;SDS011;5783;55.174;61.310;2022-07-22T09:04:52;3.65;;;1.90;;
11453;SDS011;5783;55.174;61.310;2022-07-22T09:07:43;3.20;;;1.85;;
11453;SDS011;5783;55.174;61.310;2022-07-22T09:10:16;3.13;;;1.90;;
11453;SDS011;5783;55.174;61.310;2022-07-22T09:13:20;1.90;;;1.80;;
11453;SDS011;5783;55.174;61.310;2022-07-22T09:15:37;3.90;;;1.83;;
11453;SDS011;5783;55.174;61.310;2022-07-22T09:18:08;3.70;;;2.00;;
11453;SDS011;5783;55.174;61.310;2022-07-22T09:23:28;3.80;;;1.80;;
11453;SDS011;5783;55.174;61.310;2022-07-22T09:26:00;3.90;;;1.80;;
11453;SDS011;5783;55.174;61.310;2022-07-22T16:34:15;3.00;;;2.80;;
11453;SDS011;5783;55.174;61.310;2022-07-22T16:54:04;3.50;;;2.60;;
11453;SDS011;5783;55.174;61.310;2022-07-22T17:21:17;2.65;;;2.45;;
11453;SDS011;5783;55.174;61.310;2022-07-22T17:28:42;2.70;;;2.40;;
11453;SDS011;5783;55.174;61.310;2022-07-22T17:53:28;2.40;;;2.20;;
11453;SDS011;5783;55.174;61.310;2022-07-22T18:33:06;1.70;;;1.60;;
11453;SDS011;5783;55.174;61.310;2022-07-22T18:35:35;2.30;;;2.10;;
11453;SDS011;5783;55.174;61.310;2022-07-22T18:43:00;2.00;;;1.90;;
11453;SDS011;5783;55.174;61.310;2022-07-22T19:05:37;2.40;;;2.10;;
11453;SDS011;5783;55.174;61.310;2022-07-22T19:20:30;2.80;;;2.00;;
11453;SDS011;5783;55.174;61.310;2022-07-22T19:25:28;2.20;;;2.00;;
11453;SDS011;5783;55.174;61.310;2022-07-22T19:27:57;3.20;;;2.10;;
11453;SDS011;5783;55.174;61.310;2022-07-22T19:40:19;2.20;;;2.00;;
11453;SDS011;5783;55.174;61.310;2022-07-22T19:42:48;4.75;;;2.10;;
11453;SDS011;5783;55.174;61.310;2022-07-22T19:45:17;2.65;;;2.10;;
11453;SDS011;5783;55.174;61.310;2022-07-22T19:47:46;2.30;;;2.10;;
11453;SDS011;5783;55.174;61.310;2022-07-22T19:52:44;2.00;;;1.90;;
11453;SDS011;5783;55.174;61.310;2022-07-22T20:02:38;2.40;;;2.20;;
11453;SDS011;5783;55.174;61.310;2022-07-22T20:15:01;3.15;;;2.00;;
11453;SDS011;5783;55.174;61.310;2022-07-22T20:17:31;4.50;;;2.20;;
11453;SDS011;5783;55.174;61.310;2022-07-22T20:20:00;2.50;;;2.30;;
11453;SDS011;5783;55.174;61.310;2022-07-22T20:25:00;2.60;;;2.40;;
11453;SDS011;5783;55.174;61.310;2022-07-22T20:44:47;3.45;;;2.65;;
11453;SDS011;5783;55.174;61.310;2022-07-22T20:47:16;3.20;;;2.60;;
11453;SDS011;5783;55.174;61.310;2022-07-22T20:54:42;2.95;;;2.60;;
11453;SDS011;5783;55.174;61.310;2022-07-22T21:12:00;3.30;;;2.50;;
11453;SDS011;5783;55.174;61.310;2022-07-22T21:36:44;2.80;;;2.50;;
11453;SDS011;5783;55.174;61.310;2022-07-22T21:41:41;2.75;;;2.50;;
11453;SDS011;5783;55.174;61.310;2022-07-22T21:44:10;2.40;;;2.20;;
11453;SDS011;5783;55.174;61.310;2022-07-22T21:49:08;2.50;;;2.30;;
11453;SDS011;5783;55.174;61.310;2022-07-22T21:51:37;2.20;;;2.00;;
11453;SDS011;5783;55.174;61.310;2022-07-22T21:54:07;2.30;;;2.10;;
11453;SDS011;5783;55.174;61.310;2022-07-22T21:56:36;2.70;;;2.30;;
11453;SDS011;5783;55.174;61.310;2022-07-22T21:59:26;2.83;;;2.20;;
11453;SDS011;5783;55.174;61.310;2022-07-22T22:01:58;2.20;;;2.00;;
11453;SDS011;5783;55.174;61.310;2022-07-22T22:09:27;2.30;;;2.10;;
11453;SDS011;5783;55.174;61.310;2022-07-22T22:19:22;2.30;;;1.90;;
11453;SDS011;5783;55.174;61.310;2022-07-22T22:24:20;2.30;;;2.10;;
11453;SDS011;5783;55.174;61.310;2022-07-22T22:29:17;2.15;;;1.95;;
11453;SDS011;5783;55.174;61.310;2022-07-22T22:31:46;2.20;;;2.00;;
11453;SDS011;5783;55.174;61.310;2022-07-22T22:41:40;2.30;;;2.10;;
11453;SDS011;5783;55.174;61.310;2022-07-22T22:44:09;2.10;;;1.90;;
11453;SDS011;5783;55.174;61.310;2022-07-22T22:46:38;2.10;;;1.90;;
11453;SDS011;5783;55.174;61.310;2022-07-22T22:59:00;1.95;;;1.80;;
11453;SDS011;5783;55.174;61.310;2022-07-22T23:01:29;2.30;;;2.10;;
11453;SDS011;5783;55.174;61.310;2022-07-22T23:03:59;1.80;;;1.70;;
11453;SDS011;5783;55.174;61.310;2022-07-22T23:11:24;2.10;;;1.90;;
11453;SDS011;5783;55.174;61.310;2022-07-22T23:13:53;2.20;;;2.00;;
11453;SDS011;5783;55.174;61.310;2022-07-22T23:16:22;1.80;;;1.70;;
11453;SDS011;5783;55.174;61.310;2022-07-22T23:18:52;2.17;;;2.00;;
11453;SDS011;5783;55.174;61.310;2022-07-22T23:21:21;1.80;;;1.70;;
11453;SDS011;5783;55.174;61.310;2022-07-22T23:23:50;2.30;;;1.80;;
11453;SDS011;5783;55.174;61.310;2022-07-22T23:26:19;2.30;;;2.10;;
11453;SDS011;5783;55.174;61.310;2022-07-22T23:28:49;4.35;;;1.80;;
11453;SDS011;5783;55.174;61.310;2022-07-22T23:33:46;1.60;;;1.50;;
11453;SDS011;5783;55.174;61.310;2022-07-22T23:36:16;2.70;;;1.90;;
11453;SDS011;5783;55.174;61.310;2022-07-22T23:38:45;1.80;;;1.70;;
11453;SDS011;5783;55.174;61.310;2022-07-22T23:43:42;2.67;;;1.80;;
11453;SDS011;5783;55.174;61.310;2022-07-22T23:46:11;2.10;;;1.90;;
11453;SDS011;5783;55.174;61.310;2022-07-22T23:49:02;2.60;;;2.00;;
11453;SDS011;5783;55.174;61.310;2022-07-22T23:54:19;1.90;;;1.80;;
11453;SDS011;5783;55.174;61.310;2022-07-22T23:56:50;1.90;;;1.80;;
11453;SDS011;5783;55.174;61.310;2022-07-22T23:59:19;2.10;;;1.90;;
